sensor_id;sensor_type;location;lat;lon;timestamp;P1;durP1;ratioP1;P2;durP2;ratioP2
5688;SDS011;2869;50.432;8.680;2022-09-09T00:01:47;6.97;;;3.20;;
5688;SDS011;2869;50.432;8.680;2022-09-09T00:04:20;8.27;;;3.47;;
5688;SDS011;2869;50.432;8.680;2022-09-09T00:06:55;6.90;;;3.03;;
5688;SDS011;2869;50.432;8.680;2022-09-09T00:09:29;9.37;;;2.50;;
5688;SDS011;2869;50.432;8.680;2022-09-09T00:12:04;3.80;;;2.57;;
5688;SDS011;2869;50.432;8.680;2022-09-09T00:14:39;3.77;;;2.77;;
5688;SDS011;2869;50.432;8.680;2022-09-09T00:17:13;5.70;;;2.60;;
5688;SDS011;2869;50.432;8.680;2022-09-09T00:19:48;5.27;;;2.73;;
5688;SDS011;2869;50.432;8.680;2022-09-09T00:22:20;4.90;;;3.10;;
5688;SDS011;2869;50.432;8.680;2022-09-09T00:24:51;3.27;;;2.97;;
5688;SDS011;2869;50.432;8.680;2022-09-09T00:27:21;5.07;;;2.60;;
5688;SDS011;2869;50.432;8.680;2022-09-09T00:29:58;4.77;;;3.10;;
5688;SDS011;2869;50.432;8.680;2022-09-09T00:32:28;5.10;;;2.63;;
5688;SDS011;2869;50.432;8.680;2022-09-09T00:34:56;6.20;;;3.63;;
5688;SDS011;2869;50.432;8.680;2022-09-09T00:37:27;5.93;;;2.90;;
5688;SDS011;2869;50.432;8.680;2022-09-09T00:39:57;6.60;;;2.80;;
5688;SDS011;2869;50.432;8.680;2022-09-09T00:42:31;3.93;;;2.43;;
5688;SDS011;2869;50.432;8.680;2022-09-09T00:45:08;3.07;;;2.83;;
5688;SDS011;2869;50.432;8.680;2022-09-09T00:47:46;10.63;;;3.03;;
5688;SDS011;2869;50.432;8.680;2022-09-09T00:50:17;3.93;;;2.57;;
5688;SDS011;2869;50.432;8.680;2022-09-09T00:53:02;8.17;;;2.77;;
5688;SDS011;2869;50.432;8.680;2022-09-09T00:55:39;4.17;;;2.47;;
5688;SDS011;2869;50.432;8.680;2022-09-09T00:58:10;5.20;;;3.20;;
5688;SDS011;2869;50.432;8.680;2022-09-09T01:00:41;9.63;;;2.83;;
5688;SDS011;2869;50.432;8.680;2022-09-09T01:03:13;2.80;;;2.47;;
5688;SDS011;2869;50.432;8.680;2022-09-09T01:05:51;3.27;;;2.50;;
5688;SDS011;2869;50.432;8.680;2022-09-09T01:08:39;5.47;;;2.40;;
5688;SDS011;2869;50.432;8.680;2022-09-09T01:11:20;4.30;;;2.90;;
5688;SDS011;2869;50.432;8.680;2022-09-09T01:13:49;9.03;;;3.00;;
5688;SDS011;2869;50.432;8.680;2022-09-09T01:16:25;10.93;;;3.13;;
5688;SDS011;2869;50.432;8.680;2022-09-09T01:18:53;8.07;;;2.40;;
5688;SDS011;2869;50.432;8.680;2022-09-09T01:21:24;5.67;;;2.30;;
5688;SDS011;2869;50.432;8.680;2022-09-09T01:24:14;10.67;;;3.20;;
5688;SDS011;2869;50.432;8.680;2022-09-09T01:26:49;7.70;;;2.73;;
5688;SDS011;2869;50.432;8.680;2022-09-09T01:29:18;5.37;;;2.17;;
5688;SDS011;2869;50.432;8.680;2022-09-09T01:31:52;9.03;;;2.57;;
5688;SDS011;2869;50.432;8.680;2022-09-09T01:34:21;6.93;;;2.53;;
5688;SDS011;2869;50.432;8.680;2022-09-09T01:36:52;6.00;;;2.77;;
5688;SDS011;2869;50.432;8.680;2022-09-09T01:39:23;5.53;;;2.73;;
5688;SDS011;2869;50.432;8.680;2022-09-09T01:41:51;10.30;;;2.50;;
5688;SDS011;2869;50.432;8.680;2022-09-09T01:44:18;3.33;;;2.23;;
5688;SDS011;2869;50.432;8.680;2022-09-09T01:46:46;5.20;;;2.50;;
5688;SDS011;2869;50.432;8.680;2022-09-09T01:49:13;4.33;;;1.80;;
5688;SDS011;2869;50.432;8.680;2022-09-09T01:51:40;8.83;;;2.80;;
5688;SDS011;2869;50.432;8.680;2022-09-09T01:54:08;2.10;;;1.90;;
5688;SDS011;2869;50.432;8.680;2022-09-09T01:56:40;6.00;;;2.17;;
5688;SDS011;2869;50.432;8.680;2022-09-09T01:59:18;6.07;;;2.50;;
5688;SDS011;2869;50.432;8.680;2022-09-09T02:01:56;4.60;;;1.87;;
5688;SDS011;2869;50.432;8.680;2022-09-09T02:04:35;7.07;;;2.17;;
5688;SDS011;2869;50.432;8.680;2022-09-09T02:07:05;4.00;;;2.13;;
5688;SDS011;2869;50.432;8.680;2022-09-09T02:09:46;5.10;;;2.30;;
5688;SDS011;2869;50.432;8.680;2022-09-09T02:12:16;4.87;;;2.13;;
5688;SDS011;2869;50.432;8.680;2022-09-09T02:14:52;5.50;;;2.63;;
5688;SDS011;2869;50.432;8.680;2022-09-09T02:17:25;3.13;;;2.17;;
5688;SDS011;2869;50.432;8.680;2022-09-09T02:19:56;6.60;;;2.47;;
5688;SDS011;2869;50.432;8.680;2022-09-09T02:22:28;7.40;;;2.73;;
5688;SDS011;2869;50.432;8.680;2022-09-09T02:24:57;7.40;;;2.27;;
5688;SDS011;2869;50.432;8.680;2022-09-09T02:27:26;3.53;;;2.20;;
5688;SDS011;2869;50.432;8.680;2022-09-09T02:29:55;5.13;;;2.40;;
5688;SDS011;2869;50.432;8.680;2022-09-09T02:32:25;2.77;;;2.00;;
5688;SDS011;2869;50.432;8.680;2022-09-09T02:34:56;6.73;;;2.43;;
5688;SDS011;2869;50.432;8.680;2022-09-09T02:37:28;4.30;;;2.40;;
5688;SDS011;2869;50.432;8.680;2022-09-09T02:40:01;7.50;;;2.67;;
5688;SDS011;2869;50.432;8.680;2022-09-09T02:42:29;10.00;;;2.50;;
5688;SDS011;2869;50.432;8.680;2022-09-09T02:44:57;4.80;;;2.13;;
5688;SDS011;2869;50.432;8.680;2022-09-09T02:47:29;4.53;;;2.60;;
5688;SDS011;2869;50.432;8.680;2022-09-09T02:50:02;6.80;;;1.93;;
5688;SDS011;2869;50.432;8.680;2022-09-09T02:52:38;3.50;;;1.90;;
5688;SDS011;2869;50.432;8.680;2022-09-09T02:55:20;4.57;;;2.10;;
5688;SDS011;2869;50.432;8.680;2022-09-09T02:57:52;4.83;;;2.10;;
5688;SDS011;2869;50.432;8.680;2022-09-09T03:00:26;5.13;;;2.60;;
5688;SDS011;2869;50.432;8.680;2022-09-09T03:02:54;3.73;;;2.17;;
5688;SDS011;2869;50.432;8.680;2022-09-09T03:05:21;4.57;;;2.47;;
5688;SDS011;2869;50.432;8.680;2022-09-09T03:07:48;4.97;;;2.10;;
5688;SDS011;2869;50.432;8.680;2022-09-09T03:10:15;2.33;;;2.10;;
5688;SDS011;2869;50.432;8.680;2022-09-09T03:12:42;4.17;;;2.20;;
5688;SDS011;2869;50.432;8.680;2022-09-09T03:15:09;6.23;;;2.27;;
5688;SDS011;2869;50.432;8.680;2022-09-09T03:17:37;5.20;;;2.23;;
5688;SDS011;2869;50.432;8.680;2022-09-09T03:20:04;3.00;;;1.80;;
5688;SDS011;2869;50.432;8.680;2022-09-09T03:22:32;4.83;;;2.00;;
5688;SDS011;2869;50.432;8.680;2022-09-09T03:24:59;2.80;;;2.17;;
5688;SDS011;2869;50.432;8.680;2022-09-09T03:27:25;3.13;;;2.10;;
5688;SDS011;2869;50.432;8.680;2022-09-09T03:29:52;3.20;;;2.00;;
5688;SDS011;2869;50.432;8.680;2022-09-09T03:32:18;4.57;;;2.20;;
5688;SDS011;2869;50.432;8.680;2022-09-09T03:34:48;6.77;;;2.30;;
5688;SDS011;2869;50.432;8.680;2022-09-09T03:37:15;2.93;;;2.50;;
5688;SDS011;2869;50.432;8.680;2022-09-09T03:39:42;9.30;;;2.50;;
5688;SDS011;2869;50.432;8.680;2022-09-09T03:42:09;12.40;;;3.30;;
5688;SDS011;2869;50.432;8.680;2022-09-09T03:44:39;3.10;;;2.23;;
5688;SDS011;2869;50.432;8.680;2022-09-09T03:47:06;8.53;;;2.67;;
5688;SDS011;2869;50.432;8.680;2022-09-09T03:49:33;6.83;;;2.20;;
5688;SDS011;2869;50.432;8.680;2022-09-09T03:52:01;4.53;;;2.10;;
5688;SDS011;2869;50.432;8.680;2022-09-09T03:54:28;4.70;;;2.70;;
5688;SDS011;2869;50.432;8.680;2022-09-09T03:56:55;5.67;;;2.97;;
5688;SDS011;2869;50.432;8.680;2022-09-09T03:59:23;8.10;;;2.80;;
5688;SDS011;2869;50.432;8.680;2022-09-09T04:01:50;8.07;;;2.70;;
5688;SDS011;2869;50.432;8.680;2022-09-09T04:04:17;5.17;;;2.50;;
5688;SDS011;2869;50.432;8.680;2022-09-09T04:06:44;4.40;;;2.60;;
5688;SDS011;2869;50.432;8.680;2022-09-09T04:09:13;5.53;;;3.13;;
5688;SDS011;2869;50.432;8.680;2022-09-09T04:11:40;11.40;;;3.30;;
5688;SDS011;2869;50.432;8.680;2022-09-09T04:14:06;5.17;;;2.50;;
5688;SDS011;2869;50.432;8.680;2022-09-09T04:16:34;5.27;;;2.47;;
5688;SDS011;2869;50.432;8.680;2022-09-09T04:19:02;5.30;;;2.50;;
5688;SDS011;2869;50.432;8.680;2022-09-09T04:21:29;4.83;;;2.63;;
5688;SDS011;2869;50.432;8.680;2022-09-09T04:23:55;3.07;;;2.30;;
5688;SDS011;2869;50.432;8.680;2022-09-09T04:26:24;6.40;;;2.50;;
5688;SDS011;2869;50.432;8.680;2022-09-09T04:28:50;3.20;;;2.40;;
5688;SDS011;2869;50.432;8.680;2022-09-09T04:31:18;7.40;;;2.50;;
5688;SDS011;2869;50.432;8.680;2022-09-09T04:33:47;4.37;;;2.57;;
5688;SDS011;2869;50.432;8.680;2022-09-09T04:36:14;8.77;;;2.60;;
5688;SDS011;2869;50.432;8.680;2022-09-09T04:38:41;3.30;;;2.50;;
5688;SDS011;2869;50.432;8.680;2022-09-09T04:41:09;5.53;;;2.70;;
5688;SDS011;2869;50.432;8.680;2022-09-09T04:43:38;7.83;;;2.70;;
5688;SDS011;2869;50.432;8.680;2022-09-09T04:46:05;4.23;;;3.07;;
5688;SDS011;2869;50.432;8.680;2022-09-09T04:48:32;4.37;;;2.50;;
5688;SDS011;2869;50.432;8.680;2022-09-09T04:50:59;3.30;;;2.60;;
5688;SDS011;2869;50.432;8.680;2022-09-09T04:53:27;7.10;;;2.87;;
5688;SDS011;2869;50.432;8.680;2022-09-09T04:56:00;2.70;;;2.40;;
5688;SDS011;2869;50.432;8.680;2022-09-09T04:58:28;6.80;;;2.70;;
5688;SDS011;2869;50.432;8.680;2022-09-09T05:00:56;7.67;;;3.13;;
5688;SDS011;2869;50.432;8.680;2022-09-09T05:03:29;6.70;;;2.73;;
5688;SDS011;2869;50.432;8.680;2022-09-09T05:06:01;4.80;;;2.60;;
5688;SDS011;2869;50.432;8.680;2022-09-09T05:08:29;7.00;;;2.60;;
5688;SDS011;2869;50.432;8.680;2022-09-09T05:10:56;7.17;;;2.60;;
5688;SDS011;2869;50.432;8.680;2022-09-09T05:13:24;5.93;;;2.57;;
5688;SDS011;2869;50.432;8.680;2022-09-09T05:15:51;11.73;;;3.00;;
5688;SDS011;2869;50.432;8.680;2022-09-09T05:18:20;4.40;;;2.60;;
5688;SDS011;2869;50.432;8.680;2022-09-09T05:20:47;5.33;;;2.53;;
5688;SDS011;2869;50.432;8.680;2022-09-09T05:23:14;10.97;;;2.80;;
5688;SDS011;2869;50.432;8.680;2022-09-09T05:25:41;5.40;;;3.07;;
5688;SDS011;2869;50.432;8.680;2022-09-09T05:28:08;3.47;;;2.60;;
5688;SDS011;2869;50.432;8.680;2022-09-09T05:30:36;5.67;;;2.93;;
5688;SDS011;2869;50.432;8.680;2022-09-09T05:33:03;3.33;;;2.53;;
5688;SDS011;2869;50.432;8.680;2022-09-09T05:35:32;7.10;;;2.90;;
5688;SDS011;2869;50.432;8.680;2022-09-09T05:37:59;6.63;;;3.00;;
5688;SDS011;2869;50.432;8.680;2022-09-09T05:40:26;8.13;;;2.90;;
5688;SDS011;2869;50.432;8.680;2022-09-09T05:42:53;7.33;;;3.30;;
5688;SDS011;2869;50.432;8.680;2022-09-09T05:45:20;6.70;;;3.00;;
5688;SDS011;2869;50.432;8.680;2022-09-09T05:47:50;15.50;;;2.90;;
5688;SDS011;2869;50.432;8.680;2022-09-09T05:50:18;4.93;;;3.00;;
5688;SDS011;2869;50.432;8.680;2022-09-09T05:52:46;8.37;;;3.07;;
5688;SDS011;2869;50.432;8.680;2022-09-09T05:55:14;6.40;;;3.03;;
5688;SDS011;2869;50.432;8.680;2022-09-09T05:57:41;6.17;;;2.87;;
5688;SDS011;2869;50.432;8.680;2022-09-09T06:00:08;4.57;;;2.80;;
5688;SDS011;2869;50.432;8.680;2022-09-09T06:02:37;5.97;;;2.93;;
5688;SDS011;2869;50.432;8.680;2022-09-09T06:05:04;12.43;;;3.20;;
5688;SDS011;2869;50.432;8.680;2022-09-09T06:07:31;3.10;;;2.80;;
5688;SDS011;2869;50.432;8.680;2022-09-09T06:09:59;4.60;;;2.70;;
5688;SDS011;2869;50.432;8.680;2022-09-09T06:12:25;7.27;;;3.07;;
5688;SDS011;2869;50.432;8.680;2022-09-09T06:14:52;9.83;;;3.40;;
5688;SDS011;2869;50.432;8.680;2022-09-09T06:17:19;3.83;;;2.77;;
5688;SDS011;2869;50.432;8.680;2022-09-09T06:19:45;9.50;;;2.97;;
5688;SDS011;2869;50.432;8.680;2022-09-09T06:22:12;15.00;;;2.80;;
5688;SDS011;2869;50.432;8.680;2022-09-09T06:24:39;6.07;;;3.30;;
5688;SDS011;2869;50.432;8.680;2022-09-09T06:27:07;7.87;;;2.80;;
5688;SDS011;2869;50.432;8.680;2022-09-09T06:29:33;8.93;;;3.30;;
5688;SDS011;2869;50.432;8.680;2022-09-09T06:32:00;6.87;;;2.73;;
5688;SDS011;2869;50.432;8.680;2022-09-09T06:34:27;6.87;;;3.20;;
5688;SDS011;2869;50.432;8.680;2022-09-09T06:36:54;8.50;;;3.10;;
5688;SDS011;2869;50.432;8.680;2022-09-09T06:39:22;10.90;;;3.80;;
5688;SDS011;2869;50.432;8.680;2022-09-09T06:41:49;3.30;;;3.00;;
5688;SDS011;2869;50.432;8.680;2022-09-09T06:44:19;8.03;;;3.23;;
5688;SDS011;2869;50.432;8.680;2022-09-09T06:46:46;7.43;;;2.50;;
5688;SDS011;2869;50.432;8.680;2022-09-09T06:49:13;2.53;;;2.33;;
5688;SDS011;2869;50.432;8.680;2022-09-09T06:51:40;2.93;;;2.70;;
5688;SDS011;2869;50.432;8.680;2022-09-09T06:54:07;5.80;;;2.63;;
5688;SDS011;2869;50.432;8.680;2022-09-09T06:56:35;4.80;;;2.70;;
5688;SDS011;2869;50.432;8.680;2022-09-09T06:59:06;4.77;;;2.50;;
5688;SDS011;2869;50.432;8.680;2022-09-09T07:01:35;6.03;;;2.30;;
5688;SDS011;2869;50.432;8.680;2022-09-09T07:04:05;7.90;;;2.30;;
5688;SDS011;2869;50.432;8.680;2022-09-09T07:06:33;7.03;;;2.60;;
5688;SDS011;2869;50.432;8.680;2022-09-09T07:09:02;5.03;;;2.07;;
5688;SDS011;2869;50.432;8.680;2022-09-09T07:11:31;5.73;;;2.70;;
5688;SDS011;2869;50.432;8.680;2022-09-09T07:14:00;4.80;;;2.37;;
5688;SDS011;2869;50.432;8.680;2022-09-09T07:16:27;7.53;;;2.77;;
5688;SDS011;2869;50.432;8.680;2022-09-09T07:18:55;8.50;;;2.60;;
5688;SDS011;2869;50.432;8.680;2022-09-09T07:21:23;4.63;;;2.13;;
5688;SDS011;2869;50.432;8.680;2022-09-09T07:23:51;9.13;;;2.60;;
5688;SDS011;2869;50.432;8.680;2022-09-09T07:26:18;4.03;;;2.30;;
5688;SDS011;2869;50.432;8.680;2022-09-09T07:28:47;3.53;;;2.60;;
5688;SDS011;2869;50.432;8.680;2022-09-09T07:31:15;4.77;;;2.40;;
5688;SDS011;2869;50.432;8.680;2022-09-09T07:33:44;7.50;;;2.40;;
5688;SDS011;2869;50.432;8.680;2022-09-09T07:36:14;6.30;;;2.60;;
5688;SDS011;2869;50.432;8.680;2022-09-09T07:38:42;4.10;;;2.30;;
5688;SDS011;2869;50.432;8.680;2022-09-09T07:41:11;3.97;;;2.53;;
5688;SDS011;2869;50.432;8.680;2022-09-09T07:43:39;6.77;;;2.70;;
5688;SDS011;2869;50.432;8.680;2022-09-09T07:46:07;3.53;;;2.57;;
5688;SDS011;2869;50.432;8.680;2022-09-09T07:48:34;4.93;;;2.80;;
5688;SDS011;2869;50.432;8.680;2022-09-09T07:51:05;4.23;;;2.50;;
5688;SDS011;2869;50.432;8.680;2022-09-09T07:53:34;5.83;;;3.07;;
5688;SDS011;2869;50.432;8.680;2022-09-09T07:56:03;5.47;;;3.20;;
5688;SDS011;2869;50.432;8.680;2022-09-09T07:58:32;5.60;;;2.73;;
5688;SDS011;2869;50.432;8.680;2022-09-09T08:00:59;5.47;;;2.87;;
5688;SDS011;2869;50.432;8.680;2022-09-09T08:03:25;4.50;;;2.73;;
5688;SDS011;2869;50.432;8.680;2022-09-09T08:05:52;7.50;;;3.77;;
5688;SDS011;2869;50.432;8.680;2022-09-09T08:08:19;4.50;;;3.03;;
5688;SDS011;2869;50.432;8.680;2022-09-09T08:10:47;5.43;;;3.43;;
5688;SDS011;2869;50.432;8.680;2022-09-09T08:13:13;5.13;;;3.70;;
5688;SDS011;2869;50.432;8.680;2022-09-09T08:15:40;7.90;;;3.87;;
5688;SDS011;2869;50.432;8.680;2022-09-09T08:18:08;5.50;;;3.37;;
5688;SDS011;2869;50.432;8.680;2022-09-09T08:20:35;5.53;;;3.50;;
5688;SDS011;2869;50.432;8.680;2022-09-09T08:23:03;4.70;;;3.10;;
5688;SDS011;2869;50.432;8.680;2022-09-09T08:25:30;4.87;;;3.70;;
5688;SDS011;2869;50.432;8.680;2022-09-09T08:27:59;6.93;;;3.70;;
5688;SDS011;2869;50.432;8.680;2022-09-09T08:30:26;8.03;;;3.47;;
5688;SDS011;2869;50.432;8.680;2022-09-09T08:32:53;11.63;;;4.33;;
5688;SDS011;2869;50.432;8.680;2022-09-09T08:35:19;5.00;;;2.83;;
5688;SDS011;2869;50.432;8.680;2022-09-09T08:37:46;8.10;;;3.00;;
5688;SDS011;2869;50.432;8.680;2022-09-09T08:40:16;5.00;;;2.60;;
5688;SDS011;2869;50.432;8.680;2022-09-09T08:42:48;8.10;;;2.80;;
5688;SDS011;2869;50.432;8.680;2022-09-09T08:45:24;10.30;;;2.97;;
5688;SDS011;2869;50.432;8.680;2022-09-09T08:48:01;5.67;;;3.10;;
5688;SDS011;2869;50.432;8.680;2022-09-09T08:50:43;9.13;;;3.10;;
5688;SDS011;2869;50.432;8.680;2022-09-09T08:53:14;5.13;;;2.70;;
5688;SDS011;2869;50.432;8.680;2022-09-09T08:55:45;7.40;;;3.07;;
5688;SDS011;2869;50.432;8.680;2022-09-09T08:58:15;6.57;;;2.80;;
5688;SDS011;2869;50.432;8.680;2022-09-09T09:00:47;5.07;;;2.70;;
5688;SDS011;2869;50.432;8.680;2022-09-09T09:03:27;3.90;;;2.47;;
5688;SDS011;2869;50.432;8.680;2022-09-09T09:06:01;8.53;;;3.00;;
5688;SDS011;2869;50.432;8.680;2022-09-09T09:08:36;8.27;;;2.70;;
5688;SDS011;2869;50.432;8.680;2022-09-09T09:11:10;6.00;;;2.27;;
5688;SDS011;2869;50.432;8.680;2022-09-09T09:13:38;15.97;;;2.43;;
5688;SDS011;2869;50.432;8.680;2022-09-09T09:16:13;5.10;;;2.40;;
5688;SDS011;2869;50.432;8.680;2022-09-09T09:18:47;9.03;;;2.50;;
5688;SDS011;2869;50.432;8.680;2022-09-09T09:21:16;4.67;;;2.33;;
5688;SDS011;2869;50.432;8.680;2022-09-09T09:23:51;4.90;;;2.40;;
5688;SDS011;2869;50.432;8.680;2022-09-09T09:26:22;8.23;;;2.47;;
5688;SDS011;2869;50.432;8.680;2022-09-09T09:28:52;5.03;;;2.13;;
5688;SDS011;2869;50.432;8.680;2022-09-09T09:31:23;16.10;;;3.00;;
5688;SDS011;2869;50.432;8.680;2022-09-09T09:33:52;7.50;;;2.57;;
5688;SDS011;2869;50.432;8.680;2022-09-09T09:36:21;8.43;;;2.40;;
5688;SDS011;2869;50.432;8.680;2022-09-09T09:38:51;8.03;;;2.30;;
5688;SDS011;2869;50.432;8.680;2022-09-09T09:41:30;3.30;;;2.50;;
5688;SDS011;2869;50.432;8.680;2022-09-09T09:43:59;5.17;;;2.27;;
5688;SDS011;2869;50.432;8.680;2022-09-09T09:46:28;4.63;;;2.00;;
5688;SDS011;2869;50.432;8.680;2022-09-09T09:48:58;2.43;;;2.00;;
5688;SDS011;2869;50.432;8.680;2022-09-09T09:51:26;4.70;;;2.33;;
5688;SDS011;2869;50.432;8.680;2022-09-09T09:54:02;10.30;;;2.37;;
5688;SDS011;2869;50.432;8.680;2022-09-09T09:56:34;4.50;;;2.30;;
5688;SDS011;2869;50.432;8.680;2022-09-09T09:59:01;8.57;;;2.50;;
5688;SDS011;2869;50.432;8.680;2022-09-09T10:01:29;4.60;;;1.77;;
5688;SDS011;2869;50.432;8.680;2022-09-09T10:03:58;4.33;;;1.90;;
5688;SDS011;2869;50.432;8.680;2022-09-09T10:06:30;4.47;;;2.00;;
5688;SDS011;2869;50.432;8.680;2022-09-09T10:08:58;4.63;;;2.10;;
5688;SDS011;2869;50.432;8.680;2022-09-09T10:11:30;2.70;;;2.07;;
5688;SDS011;2869;50.432;8.680;2022-09-09T10:14:08;6.37;;;2.10;;
5688;SDS011;2869;50.432;8.680;2022-09-09T10:20:16;6.83;;;2.20;;
5688;SDS011;2869;50.432;8.680;2022-09-09T10:22:51;5.53;;;1.80;;
5688;SDS011;2869;50.432;8.680;2022-09-09T10:25:29;4.83;;;1.80;;
5688;SDS011;2869;50.432;8.680;2022-09-09T10:28:13;4.30;;;1.87;;
5688;SDS011;2869;50.432;8.680;2022-09-09T10:30:54;18.60;;;2.17;;
5688;SDS011;2869;50.432;8.680;2022-09-09T10:33:32;12.13;;;1.80;;
5688;SDS011;2869;50.432;8.680;2022-09-09T10:36:06;4.57;;;1.60;;
5688;SDS011;2869;50.432;8.680;2022-09-09T10:38:39;6.10;;;1.73;;
5688;SDS011;2869;50.432;8.680;2022-09-09T10:41:22;7.87;;;1.97;;
5688;SDS011;2869;50.432;8.680;2022-09-09T10:44:11;3.53;;;2.00;;
5688;SDS011;2869;50.432;8.680;2022-09-09T10:46:48;5.77;;;2.40;;
5688;SDS011;2869;50.432;8.680;2022-09-09T10:49:29;10.80;;;2.30;;
5688;SDS011;2869;50.432;8.680;2022-09-09T10:52:15;7.47;;;2.93;;
5688;SDS011;2869;50.432;8.680;2022-09-09T10:54:50;4.53;;;2.30;;
5688;SDS011;2869;50.432;8.680;2022-09-09T10:57:25;9.10;;;2.60;;
5688;SDS011;2869;50.432;8.680;2022-09-09T10:59:57;5.43;;;2.70;;
5688;SDS011;2869;50.432;8.680;2022-09-09T11:02:29;7.43;;;2.43;;
5688;SDS011;2869;50.432;8.680;2022-09-09T11:04:58;5.40;;;2.03;;
5688;SDS011;2869;50.432;8.680;2022-09-09T11:07:33;9.07;;;2.60;;
5688;SDS011;2869;50.432;8.680;2022-09-09T11:10:04;7.27;;;2.60;;
5688;SDS011;2869;50.432;8.680;2022-09-09T11:12:41;4.37;;;2.50;;
5688;SDS011;2869;50.432;8.680;2022-09-09T11:15:14;7.40;;;3.10;;
5688;SDS011;2869;50.432;8.680;2022-09-09T11:17:46;7.90;;;2.90;;
5688;SDS011;2869;50.432;8.680;2022-09-09T11:20:16;7.33;;;2.50;;
5688;SDS011;2869;50.432;8.680;2022-09-09T11:22:45;5.90;;;3.10;;
5688;SDS011;2869;50.432;8.680;2022-09-09T11:25:15;10.90;;;2.60;;
5688;SDS011;2869;50.432;8.680;2022-09-09T11:27:51;6.60;;;2.40;;
5688;SDS011;2869;50.432;8.680;2022-09-09T11:30:26;7.10;;;2.70;;
5688;SDS011;2869;50.432;8.680;2022-09-09T11:33:13;10.07;;;2.63;;
5688;SDS011;2869;50.432;8.680;2022-09-09T11:35:53;4.30;;;2.30;;
5688;SDS011;2869;50.432;8.680;2022-09-09T11:38:40;5.97;;;2.80;;
5688;SDS011;2869;50.432;8.680;2022-09-09T11:41:11;4.07;;;2.40;;
5688;SDS011;2869;50.432;8.680;2022-09-09T11:43:40;11.07;;;3.00;;
5688;SDS011;2869;50.432;8.680;2022-09-09T11:46:09;7.23;;;2.47;;
5688;SDS011;2869;50.432;8.680;2022-09-09T11:48:37;13.13;;;3.13;;
5688;SDS011;2869;50.432;8.680;2022-09-09T11:51:08;5.47;;;2.33;;
5688;SDS011;2869;50.432;8.680;2022-09-09T11:53:48;6.77;;;3.00;;
5688;SDS011;2869;50.432;8.680;2022-09-09T11:56:23;10.40;;;3.10;;
5688;SDS011;2869;50.432;8.680;2022-09-09T11:58:56;9.37;;;2.93;;
5688;SDS011;2869;50.432;8.680;2022-09-09T12:01:35;5.67;;;2.27;;
5688;SDS011;2869;50.432;8.680;2022-09-09T12:04:11;3.53;;;2.23;;
5688;SDS011;2869;50.432;8.680;2022-09-09T12:07:00;8.17;;;2.60;;
5688;SDS011;2869;50.432;8.680;2022-09-09T12:09:31;4.77;;;2.50;;
5688;SDS011;2869;50.432;8.680;2022-09-09T12:14:57;4.67;;;2.43;;
5688;SDS011;2869;50.432;8.680;2022-09-09T12:17:26;9.03;;;2.63;;
5688;SDS011;2869;50.432;8.680;2022-09-09T12:20:03;8.80;;;2.70;;
5688;SDS011;2869;50.432;8.680;2022-09-09T12:22:39;3.07;;;1.90;;
5688;SDS011;2869;50.432;8.680;2022-09-09T12:25:26;3.10;;;1.63;;
5688;SDS011;2869;50.432;8.680;2022-09-09T12:28:02;6.20;;;1.70;;
5688;SDS011;2869;50.432;8.680;2022-09-09T12:30:37;10.83;;;1.90;;
5688;SDS011;2869;50.432;8.680;2022-09-09T12:33:13;4.97;;;1.80;;
5688;SDS011;2869;50.432;8.680;2022-09-09T12:35:43;2.00;;;1.80;;
5688;SDS011;2869;50.432;8.680;2022-09-09T12:38:13;5.10;;;1.67;;
5688;SDS011;2869;50.432;8.680;2022-09-09T12:40:53;2.53;;;1.70;;
5688;SDS011;2869;50.432;8.680;2022-09-09T12:43:21;5.33;;;1.73;;
5688;SDS011;2869;50.432;8.680;2022-09-09T12:45:48;4.93;;;1.83;;
5688;SDS011;2869;50.432;8.680;2022-09-09T12:48:21;3.53;;;1.30;;
5688;SDS011;2869;50.432;8.680;2022-09-09T12:50:55;2.23;;;1.30;;
5688;SDS011;2869;50.432;8.680;2022-09-09T12:53:22;5.27;;;1.57;;
5688;SDS011;2869;50.432;8.680;2022-09-09T12:55:54;3.83;;;1.50;;
5688;SDS011;2869;50.432;8.680;2022-09-09T12:58:23;2.60;;;1.40;;
5688;SDS011;2869;50.432;8.680;2022-09-09T13:00:50;4.20;;;1.70;;
5688;SDS011;2869;50.432;8.680;2022-09-09T13:03:21;4.60;;;1.53;;
5688;SDS011;2869;50.432;8.680;2022-09-09T13:05:50;6.33;;;1.60;;
5688;SDS011;2869;50.432;8.680;2022-09-09T13:08:17;2.57;;;1.20;;
5688;SDS011;2869;50.432;8.680;2022-09-09T13:10:46;7.50;;;1.80;;
5688;SDS011;2869;50.432;8.680;2022-09-09T13:13:19;2.60;;;1.50;;
5688;SDS011;2869;50.432;8.680;2022-09-09T13:15:48;4.33;;;1.67;;
5688;SDS011;2869;50.432;8.680;2022-09-09T13:18:17;4.23;;;1.70;;
5688;SDS011;2869;50.432;8.680;2022-09-09T13:20:47;5.10;;;1.70;;
5688;SDS011;2869;50.432;8.680;2022-09-09T13:23:14;4.73;;;1.67;;
5688;SDS011;2869;50.432;8.680;2022-09-09T13:25:52;4.57;;;1.63;;
5688;SDS011;2869;50.432;8.680;2022-09-09T13:28:22;4.10;;;1.53;;
5688;SDS011;2869;50.432;8.680;2022-09-09T13:30:57;8.57;;;1.60;;
5688;SDS011;2869;50.432;8.680;2022-09-09T13:33:30;7.10;;;1.70;;
5688;SDS011;2869;50.432;8.680;2022-09-09T13:35:59;9.33;;;1.70;;
5688;SDS011;2869;50.432;8.680;2022-09-09T13:38:29;3.70;;;1.60;;
5688;SDS011;2869;50.432;8.680;2022-09-09T13:40:58;7.37;;;1.50;;
5688;SDS011;2869;50.432;8.680;2022-09-09T13:43:31;5.53;;;1.97;;
5688;SDS011;2869;50.432;8.680;2022-09-09T13:46:01;6.90;;;1.63;;
5688;SDS011;2869;50.432;8.680;2022-09-09T13:48:54;2.97;;;1.30;;
5688;SDS011;2869;50.432;8.680;2022-09-09T13:51:26;3.50;;;1.50;;
5688;SDS011;2869;50.432;8.680;2022-09-09T13:53:58;4.40;;;1.30;;
5688;SDS011;2869;50.432;8.680;2022-09-09T13:56:25;5.57;;;1.70;;
5688;SDS011;2869;50.432;8.680;2022-09-09T13:58:52;4.57;;;1.57;;
5688;SDS011;2869;50.432;8.680;2022-09-09T14:01:18;2.60;;;1.47;;
5688;SDS011;2869;50.432;8.680;2022-09-09T14:03:45;4.63;;;1.43;;
5688;SDS011;2869;50.432;8.680;2022-09-09T14:06:13;2.80;;;1.67;;
5688;SDS011;2869;50.432;8.680;2022-09-09T14:08:40;2.77;;;1.30;;
5688;SDS011;2869;50.432;8.680;2022-09-09T14:11:07;5.53;;;1.77;;
5688;SDS011;2869;50.432;8.680;2022-09-09T14:13:39;4.30;;;1.70;;
5688;SDS011;2869;50.432;8.680;2022-09-09T14:16:06;6.47;;;1.53;;
5688;SDS011;2869;50.432;8.680;2022-09-09T14:18:33;4.40;;;1.87;;
5688;SDS011;2869;50.432;8.680;2022-09-09T14:20:59;1.93;;;1.47;;
5688;SDS011;2869;50.432;8.680;2022-09-09T14:23:28;4.30;;;1.50;;
5688;SDS011;2869;50.432;8.680;2022-09-09T14:25:55;5.20;;;1.77;;
5688;SDS011;2869;50.432;8.680;2022-09-09T14:28:22;5.70;;;1.37;;
5688;SDS011;2869;50.432;8.680;2022-09-09T14:30:48;4.83;;;1.57;;
5688;SDS011;2869;50.432;8.680;2022-09-09T14:33:15;1.63;;;1.23;;
5688;SDS011;2869;50.432;8.680;2022-09-09T14:35:42;7.93;;;1.47;;
5688;SDS011;2869;50.432;8.680;2022-09-09T14:38:09;3.50;;;1.30;;
5688;SDS011;2869;50.432;8.680;2022-09-09T14:40:37;2.07;;;1.20;;
5688;SDS011;2869;50.432;8.680;2022-09-09T14:43:04;2.17;;;1.40;;
5688;SDS011;2869;50.432;8.680;2022-09-09T14:45:31;4.67;;;1.70;;
5688;SDS011;2869;50.432;8.680;2022-09-09T14:47:58;3.53;;;1.53;;
5688;SDS011;2869;50.432;8.680;2022-09-09T14:50:25;4.60;;;1.43;;
5688;SDS011;2869;50.432;8.680;2022-09-09T14:52:52;3.83;;;1.33;;
5688;SDS011;2869;50.432;8.680;2022-09-09T14:55:18;4.20;;;1.30;;
5688;SDS011;2869;50.432;8.680;2022-09-09T14:57:47;2.80;;;1.47;;
5688;SDS011;2869;50.432;8.680;2022-09-09T15:00:15;2.27;;;1.60;;
5688;SDS011;2869;50.432;8.680;2022-09-09T15:02:41;5.47;;;1.60;;
5688;SDS011;2869;50.432;8.680;2022-09-09T15:05:08;12.53;;;2.10;;
5688;SDS011;2869;50.432;8.680;2022-09-09T15:07:35;2.23;;;1.47;;
5688;SDS011;2869;50.432;8.680;2022-09-09T15:10:03;3.00;;;1.43;;
5688;SDS011;2869;50.432;8.680;2022-09-09T15:12:31;7.63;;;1.80;;
5688;SDS011;2869;50.432;8.680;2022-09-09T15:14:59;4.53;;;1.77;;
5688;SDS011;2869;50.432;8.680;2022-09-09T15:17:26;4.07;;;1.87;;
5688;SDS011;2869;50.432;8.680;2022-09-09T15:19:53;3.73;;;1.60;;
5688;SDS011;2869;50.432;8.680;2022-09-09T15:22:19;4.77;;;1.57;;
5688;SDS011;2869;50.432;8.680;2022-09-09T15:24:46;4.43;;;1.40;;
5688;SDS011;2869;50.432;8.680;2022-09-09T15:27:13;1.80;;;1.23;;
5688;SDS011;2869;50.432;8.680;2022-09-09T15:29:40;3.33;;;1.10;;
5688;SDS011;2869;50.432;8.680;2022-09-09T15:32:08;5.43;;;1.80;;
5688;SDS011;2869;50.432;8.680;2022-09-09T15:34:34;1.60;;;1.10;;
5688;SDS011;2869;50.432;8.680;2022-09-09T15:37:01;3.80;;;1.63;;
5688;SDS011;2869;50.432;8.680;2022-09-09T15:39:28;3.13;;;1.50;;
5688;SDS011;2869;50.432;8.680;2022-09-09T15:41:54;2.80;;;1.33;;